Time;durP1;ratioP1;P1;durP2;ratioP2;P2;SDS_P1;SDS_P2;PMS_P1;PMS_P2;Temp;Humidity;BMP_temperature;BMP_pressure;BME280_temperature;BME280_humidity;BME280_pressure;Samples;Min_cycle;Max_cycle;Signal;HPM_P1;HPM_P2
2022/06/14 00:03:09;;;;;;;;;5.00;4.00;;;;;17.54;61.07;98970.53;6239785;27;97219;-74
2022/06/14 00:06:20;;;;;;;;;5.40;5.00;;;;;17.54;61.42;98976.00;6264374;27;96734;-75
2022/06/14 00:09:25;;;;;;;;;3.40;3.40;;;;;17.50;61.26;98974.84;6249256;27;96648;-75
2022/06/14 00:12:28;;;;;;;;;4.00;3.20;;;;;17.49;61.07;98981.41;6248242;27;97521;-74
2022/06/14 00:15:32;;;;;;;;;4.00;4.00;;;;;17.50;61.08;98979.50;6264294;27;97369;-74
2022/06/14 00:18:36;;;;;;;;;3.00;3.00;;;;;17.45;60.86;98985.72;6263029;27;97296;-75
2022/06/14 00:21:39;;;;;;;;;4.00;4.00;;;;;17.47;61.08;98986.31;6263311;27;98252;-75
2022/06/14 00:24:44;;;;;;;;;4.00;3.00;;;;;17.45;60.71;98984.91;6256015;27;97382;-75
2022/06/14 00:27:48;;;;;;;;;4.00;3.00;;;;;17.41;60.80;98990.06;6245713;27;98499;-74
2022/06/14 00:30:54;;;;;;;;;3.00;3.00;;;;;17.36;61.16;98989.22;6253893;27;97978;-74
2022/06/14 00:33:57;;;;;;;;;4.80;4.80;;;;;17.31;60.85;98982.66;6217599;27;98204;-74
2022/06/14 00:37:01;;;;;;;;;4.00;4.00;;;;;17.37;61.19;98997.13;6263315;27;96708;-74
2022/06/14 00:40:08;;;;;;;;;4.00;4.00;;;;;17.39;60.99;98996.88;6246741;27;96685;-75
2022/06/14 00:43:16;;;;;;;;;4.00;4.00;;;;;17.34;61.21;98989.50;6245993;27;96596;-73
2022/06/14 00:46:24;;;;;;;;;5.00;4.00;;;;;17.28;61.27;98994.09;6246637;27;96869;-74
2022/06/14 00:49:30;;;;;;;;;4.00;4.00;;;;;17.24;61.61;98990.25;6259922;27;96800;-73
2022/06/14 00:52:37;;;;;;;;;5.00;4.50;;;;;17.34;61.49;99000.41;6221696;28;97304;-75
2022/06/14 00:55:46;;;;;;;;;5.00;5.00;;;;;17.31;61.79;99009.91;6221430;28;97460;-73
2022/06/14 00:58:54;;;;;;;;;5.00;4.80;;;;;17.27;62.11;99002.53;6259070;27;97441;-75
2022/06/14 01:02:04;;;;;;;;;5.00;5.00;;;;;17.26;62.14;99000.88;6263901;27;97529;-73
2022/06/14 01:05:13;;;;;;;;;6.00;6.00;;;;;17.27;62.28;99010.69;6250322;27;96436;-75
2022/06/14 01:08:17;;;;;;;;;7.00;6.00;;;;;17.31;62.03;99009.09;6246016;27;96804;-74
2022/06/14 01:11:28;;;;;;;;;8.00;8.00;;;;;17.37;61.91;99016.22;6245579;27;97305;-74
2022/06/14 01:14:53;;;;;;;;;10.00;8.00;;;;;17.34;62.65;99005.84;6241559;27;97382;-73
2022/06/14 01:18:02;;;;;;;;;7.00;6.00;;;;;17.17;62.49;98983.38;6239916;27;96388;-73
2022/06/14 01:21:06;;;;;;;;;7.80;7.80;;;;;17.42;62.82;99009.97;6245727;27;96393;-75
2022/06/14 01:24:10;;;;;;;;;10.00;9.00;;;;;17.45;62.88;99017.63;6245566;27;96562;-75
2022/06/14 01:27:17;;;;;;;;;8.60;8.00;;;;;17.48;62.76;99011.66;6228950;27;97828;-73
2022/06/14 01:30:25;;;;;;;;;10.00;9.00;;;;;17.49;63.05;99016.03;6263498;27;97580;-73
2022/06/14 01:33:33;;;;;;;;;9.00;8.00;;;;;17.51;62.91;99013.84;6233480;28;96871;-74
2022/06/14 01:36:40;;;;;;;;;7.60;7.00;;;;;17.14;63.16;98973.84;6218487;27;98036;-73
2022/06/14 01:39:45;;;;;;;;;9.00;9.00;;;;;17.54;63.02;99024.25;6245588;27;97546;-74
2022/06/14 01:43:06;;;;;;;;;8.50;8.50;;;;;17.58;62.98;99026.19;6226736;27;99412;-75
2022/06/14 01:46:18;;;;;;;;;8.33;8.00;;;;;17.33;63.08;98993.31;6245245;27;96846;-74
2022/06/14 01:53:16;;;;;;;;;8.60;8.00;;;;;17.42;63.24;99009.97;6238415;28;96861;-73
2022/06/14 01:56:29;;;;;;;;;9.00;8.00;;;;;17.62;62.96;99024.59;6238539;27;96402;-74
2022/06/14 01:59:49;;;;;;;;;9.00;8.40;;;;;17.62;63.27;99029.22;6239244;27;98084;-72
2022/06/14 02:06:24;;;;;;;;;11.67;9.00;;;;;17.54;63.77;99022.34;6239855;27;97130;-74
2022/06/14 02:09:37;;;;;;;;;10.00;9.00;;;;;17.62;63.76;99029.22;6241636;27;97644;-74
2022/06/14 02:12:48;;;;;;;;;11.00;10.40;;;;;17.62;63.75;99040.94;6240685;27;97206;-74
2022/06/14 02:15:58;;;;;;;;;10.75;10.00;;;;;17.62;63.69;99037.41;6237095;27;98447;-72
2022/06/14 02:19:09;;;;;;;;;10.20;9.00;;;;;17.66;63.53;99036.59;6257397;27;97996;-74
2022/06/14 02:22:15;;;;;;;;;10.00;8.00;;;;;17.67;63.47;99034.69;6239294;27;96700;-73
2022/06/14 02:25:23;;;;;;;;;10.00;9.75;;;;;17.65;63.87;99047.75;6236712;27;97078;-74
2022/06/14 02:28:33;;;;;;;;;10.00;10.00;;;;;17.70;64.00;99050.53;6230297;27;98227;-73
2022/06/14 02:31:41;;;;;;;;;10.60;10.00;;;;;17.64;63.87;99037.97;6253378;27;97107;-73
2022/06/14 02:34:50;;;;;;;;;11.00;11.00;;;;;17.78;64.33;99050.03;6259600;27;96711;-73
2022/06/14 02:37:59;;;;;;;;;9.75;9.75;;;;;17.68;63.78;99037.16;6211844;27;97342;-73
2022/06/14 02:41:12;;;;;;;;;11.00;10.40;;;;;17.99;64.03;99070.88;6223816;27;99668;-75
2022/06/14 02:44:24;;;;;;;;;10.00;9.00;;;;;18.06;63.86;99073.34;6238249;27;96726;-74
2022/06/14 02:47:33;;;;;;;;;9.60;8.60;;;;;17.89;63.77;99056.34;6257217;27;97662;-74
2022/06/14 02:50:43;;;;;;;;;12.00;10.00;;;;;18.05;63.56;99079.91;6232484;28;97971;-75
2022/06/14 02:53:53;;;;;;;;;11.00;10.00;;;;;17.92;63.59;99067.56;6242182;27;97028;-75
2022/06/14 02:57:01;;;;;;;;;13.00;10.40;;;;;17.78;63.98;99054.69;6223939;27;97835;-75
2022/06/14 03:00:10;;;;;;;;;10.50;9.00;;;;;18.02;63.77;99091.34;6247559;27;96781;-75
2022/06/14 03:03:18;;;;;;;;;12.00;9.80;;;;;18.10;63.68;99088.09;6259931;27;97609;-75
2022/06/14 03:06:31;;;;;;;;;12.00;11.00;;;;;18.07;63.72;99086.75;6249944;27;96666;-73
2022/06/14 03:09:37;;;;;;;;;11.00;10.00;;;;;18.02;64.11;99088.63;6226315;27;97751;-74
2022/06/14 03:12:46;;;;;;;;;12.00;11.00;;;;;17.81;64.53;99086.84;6259102;27;97224;-75
2022/06/14 03:15:58;;;;;;;;;12.00;11.60;;;;;18.00;64.19;99099.78;6258967;27;97357;-75
2022/06/14 03:19:13;;;;;;;;;9.00;9.00;;;;;18.06;64.20;99098.75;6238497;27;97436;-74
2022/06/14 03:22:23;;;;;;;;;11.00;10.00;;;;;18.12;64.18;99103.16;6219082;28;96537;-73
2022/06/14 03:25:35;;;;;;;;;10.60;9.60;;;;;18.16;63.84;99106.16;6242752;27;97065;-75
2022/06/14 03:28:47;;;;;;;;;13.00;11.00;;;;;18.24;63.80;99110.28;6244685;27;96756;-74
2022/06/14 03:31:58;;;;;;;;;11.25;10.25;;;;;18.21;63.92;99111.63;6259733;27;97411;-74
2022/06/14 03:35:07;;;;;;;;;11.00;10.00;;;;;18.01;64.18;99081.53;6248165;27;97534;-73
2022/06/14 03:38:17;;;;;;;;;12.60;11.00;;;;;18.19;64.33;99116.53;6245266;27;96703;-74
2022/06/14 03:41:25;;;;;;;;;11.00;10.50;;;;;18.28;64.21;99130.47;6245996;27;96617;-75
2022/06/14 03:44:30;;;;;;;;;10.50;10.00;;;;;18.19;64.41;99106.44;6261413;27;96602;-75
2022/06/14 03:47:35;;;;;;;;;10.00;9.40;;;;;18.44;64.13;99132.19;6258706;27;98067;-73
2022/06/14 03:50:51;;;;;;;;;12.60;11.00;;;;;18.49;63.67;99135.78;6260423;27;97823;-73
2022/06/14 03:54:13;;;;;;;;;10.60;10.00;;;;;18.58;63.50;99141.56;6227022;27;99981;-73
2022/06/14 03:57:33;;;;;;;;;12.60;12.00;;;;;18.58;63.86;99141.56;6225374;27;98390;-75
2022/06/14 04:00:46;;;;;;;;;11.40;10.60;;;;;18.46;63.71;99130.88;6251508;27;97122;-73
2022/06/14 04:04:08;;;;;;;;;11.00;10.25;;;;;18.59;63.63;99148.69;6245523;27;96746;-74
2022/06/14 04:07:36;;;;;;;;;14.00;12.00;;;;;18.62;63.80;99150.06;6264389;27;97991;-74
2022/06/14 04:10:46;;;;;;;;;12.50;12.00;;;;;18.61;63.81;99149.25;6260081;27;97520;-73
2022/06/14 04:14:09;;;;;;;;;12.00;11.00;;;;;18.57;64.15;99154.41;6259055;27;97510;-71
2022/06/14 04:17:21;;;;;;;;;13.00;13.00;;;;;18.47;64.29;99154.31;6249499;27;97450;-74
2022/06/14 04:20:33;;;;;;;;;12.00;11.00;;;;;18.13;64.85;99117.63;6260820;27;97442;-72
2022/06/14 04:23:44;;;;;;;;;13.40;13.00;;;;;18.38;65.25;99153.19;6258570;27;97305;-72
2022/06/14 04:26:54;;;;;;;;;11.80;11.00;;;;;18.43;65.04;99158.69;6245653;27;96648;-73
2022/06/14 04:30:04;;;;;;;;;14.00;13.00;;;;;18.49;64.89;99149.44;6245808;27;97486;-75
2022/06/14 04:33:14;;;;;;;;;11.80;10.00;;;;;18.55;64.95;99162.06;6236151;27;97162;-73
2022/06/14 04:36:24;;;;;;;;;13.00;12.00;;;;;18.58;65.17;99166.97;6237730;27;98373;-74
2022/06/14 04:39:34;;;;;;;;;12.00;11.67;;;;;18.58;65.25;99174.34;6248452;27;97436;-73
2022/06/14 04:42:46;;;;;;;;;15.00;12.60;;;;;18.66;65.14;99168.38;6263996;27;96762;-74
2022/06/14 04:45:56;;;;;;;;;13.00;12.40;;;;;18.74;64.80;99170.59;6243281;27;99407;-72
2022/06/14 04:49:09;;;;;;;;;13.60;12.00;;;;;18.86;64.96;99162.16;6244268;27;96573;-72
2022/06/14 04:52:20;;;;;;;;;14.00;13.00;;;;;18.97;64.64;99164.63;6248987;27;97302;-71
2022/06/14 04:55:30;;;;;;;;;14.60;13.00;;;;;19.03;63.61;99163.56;6232446;27;98412;-74
2022/06/14 04:58:40;;;;;;;;;14.00;13.00;;;;;18.80;64.10;99125.00;6251818;27;96962;-72
2022/06/14 05:01:49;;;;;;;;;13.40;12.40;;;;;19.32;63.47;99171.25;6223626;27;99661;-74
2022/06/14 05:04:58;;;;;;;;;13.80;12.80;;;;;19.50;62.92;99167.22;6246422;27;97472;-72
2022/06/14 05:08:08;;;;;;;;;16.40;13.60;;;;;19.63;61.89;99180.34;6238689;27;98731;-74
2022/06/14 05:11:17;;;;;;;;;13.00;12.00;;;;;19.74;61.95;99179.25;6202495;28;97571;-71
2022/06/14 05:14:27;;;;;;;;;15.00;14.00;;;;;19.60;61.64;99181.69;6244766;27;97156;-73
2022/06/14 05:17:36;;;;;;;;;12.00;12.00;;;;;19.59;61.68;99179.25;6263144;27;97012;-73
2022/06/14 05:20:46;;;;;;;;;14.00;13.20;;;;;19.69;61.52;99179.25;6242677;27;96608;-71
2022/06/14 05:23:54;;;;;;;;;14.25;12.25;;;;;19.82;61.06;99189.66;6261386;27;97413;-71
2022/06/14 05:27:21;;;;;;;;;13.60;12.00;;;;;19.87;61.21;99186.91;6260024;27;96658;-76
2022/06/14 05:30:39;;;;;;;;;12.25;10.75;;;;;19.96;59.98;99196.19;6256161;27;96815;-71
2022/06/14 05:33:53;;;;;;;;;14.20;13.00;;;;;20.15;59.55;99175.38;6256145;27;96721;-75
2022/06/14 05:37:02;;;;;;;;;14.00;12.40;;;;;20.44;58.07;99186.53;6263553;27;97055;-72
2022/06/14 05:40:14;;;;;;;;;12.20;11.80;;;;;20.51;58.26;99187.09;6245712;27;97194;-74
2022/06/14 05:43:25;;;;;;;;;14.00;12.40;;;;;20.56;57.28;99184.31;6264085;27;97312;-72
2022/06/14 05:46:33;;;;;;;;;14.80;13.80;;;;;20.69;55.85;99196.59;6263865;27;98140;-72
2022/06/14 05:49:43;;;;;;;;;13.00;12.00;;;;;20.90;55.91;99189.13;6229626;27;98459;-73
2022/06/14 05:52:53;;;;;;;;;14.00;12.75;;;;;20.86;54.86;99185.31;6243834;27;97554;-73
2022/06/14 05:56:07;;;;;;;;;13.00;12.00;;;;;20.85;54.59;99187.22;6263616;27;97027;-75
2022/06/14 05:59:19;;;;;;;;;12.00;11.00;;;;;20.92;54.28;99178.66;6243876;27;97866;-74
2022/06/14 06:02:29;;;;;;;;;16.00;13.00;;;;;21.03;53.52;99199.44;6262798;27;96547;-72
2022/06/14 06:05:36;;;;;;;;;12.20;12.00;;;;;20.98;53.34;99194.00;6258039;27;97805;-73
2022/06/14 06:08:44;;;;;;;;;13.75;12.00;;;;;21.09;52.40;99199.16;6255920;27;97427;-73
2022/06/14 06:11:55;;;;;;;;;14.00;13.60;;;;;21.10;53.17;99195.31;6263152;27;96475;-72
2022/06/14 06:15:03;;;;;;;;;12.00;11.20;;;;;21.25;51.38;99188.94;6263219;27;97423;-72
2022/06/14 06:18:12;;;;;;;;;13.75;11.00;;;;;21.37;51.27;99194.88;6244363;27;96542;-72
2022/06/14 06:21:24;;;;;;;;;13.00;12.50;;;;;21.30;50.66;99172.47;6235645;27;98384;-72
2022/06/14 06:24:38;;;;;;;;;13.00;12.00;;;;;21.50;50.12;99201.69;6238933;27;96585;-75
2022/06/14 06:27:48;;;;;;;;;13.60;12.20;;;;;21.73;49.96;99205.59;6230495;27;97878;-72
2022/06/14 06:30:57;;;;;;;;;13.80;11.40;;;;;21.91;49.65;99207.66;6251955;27;97418;-72
2022/06/14 06:34:05;;;;;;;;;13.60;12.00;;;;;21.88;47.91;99224.69;6230535;27;100146;-71
2022/06/14 06:37:15;;;;;;;;;14.00;13.00;;;;;21.98;48.77;99219.16;6259071;27;96854;-73
2022/06/14 06:40:22;;;;;;;;;12.00;11.00;;;;;21.96;48.38;99215.88;6241482;27;97583;-72
2022/06/14 06:43:28;;;;;;;;;11.20;10.60;;;;;22.00;47.99;99220.50;6257939;27;98143;-72
2022/06/14 06:46:39;;;;;;;;;11.00;10.00;;;;;21.81;47.72;99224.19;6232722;27;97991;-72
2022/06/14 06:49:58;;;;;;;;;11.40;10.00;;;;;21.86;47.95;99200.28;6261945;27;96365;-72
2022/06/14 06:53:07;;;;;;;;;14.00;11.00;;;;;21.97;48.01;99212.03;6262126;27;96846;-72
2022/06/14 06:56:20;;;;;;;;;11.40;9.40;;;;;22.03;48.39;99221.84;6243864;27;99085;-72
2022/06/14 06:59:30;;;;;;;;;9.75;9.75;;;;;21.99;48.29;99235.31;6260983;27;96334;-71
2022/06/14 07:02:40;;;;;;;;;11.00;10.00;;;;;22.06;48.20;99220.44;6263734;27;97545;-74
2022/06/14 07:05:43;;;;;;;;;11.40;11.00;;;;;22.05;47.81;99227.88;6248631;27;97013;-73
2022/06/14 07:08:55;;;;;;;;;11.00;10.00;;;;;22.06;47.41;99229.50;6248572;27;97565;-74
2022/06/14 07:12:03;;;;;;;;;12.00;9.00;;;;;22.00;48.13;99214.19;6266607;27;97315;-74
2022/06/14 07:15:17;;;;;;;;;10.00;9.00;;;;;22.33;47.34;99226.25;6255848;27;96753;-74
2022/06/14 07:18:25;;;;;;;;;11.25;10.25;;;;;22.48;47.46;99223.31;6265287;27;96566;-71
2022/06/14 07:21:33;;;;;;;;;9.00;8.80;;;;;22.74;46.54;99221.94;6266239;27;97379;-71
2022/06/14 07:24:43;;;;;;;;;11.00;10.00;;;;;22.84;46.11;99205.34;6222665;27;97880;-72
2022/06/14 07:28:12;;;;;;;;;9.00;9.00;;;;;22.99;45.21;99220.81;6231150;27;97500;-72
2022/06/14 07:31:27;;;;;;;;;7.00;7.00;;;;;23.30;45.13;99222.06;6247397;27;96703;-73
2022/06/14 07:34:32;;;;;;;;;7.00;6.40;;;;;23.56;43.11;99224.44;6247349;27;97125;-73
2022/06/14 07:37:44;;;;;;;;;6.40;6.00;;;;;23.78;42.47;99224.66;6266212;27;96545;-72
2022/06/14 07:41:15;;;;;;;;;5.00;5.00;;;;;24.05;40.84;99224.75;6266182;27;97650;-75
2022/06/14 07:44:29;;;;;;;;;6.00;6.00;;;;;24.43;40.43;99213.66;6233256;27;99435;-71
2022/06/14 07:47:39;;;;;;;;;6.00;6.00;;;;;24.68;41.06;99221.41;6247749;27;96636;-75
2022/06/14 07:50:47;;;;;;;;;7.00;6.00;;;;;24.69;40.71;99228.56;6264174;27;98544;-75
2022/06/14 07:53:58;;;;;;;;;6.75;6.75;;;;;24.72;40.10;99222.44;6230757;27;96952;-74
2022/06/14 07:57:13;;;;;;;;;7.00;6.00;;;;;24.90;38.35;99220.72;6266376;27;97025;-76
2022/06/14 08:03:49;;;;;;;;;4.00;4.00;;;;;25.24;37.75;99234.88;6265821;27;97000;-76
2022/06/14 08:06:57;;;;;;;;;3.40;3.40;;;;;25.44;35.61;99211.53;6265751;27;96397;-75
2022/06/14 08:10:09;;;;;;;;;4.00;3.00;;;;;25.78;35.87;99233.13;6246612;27;96618;-72
2022/06/14 08:13:17;;;;;;;;;3.60;3.60;;;;;26.06;34.76;99240.16;6246579;27;96525;-72
2022/06/14 08:16:25;;;;;;;;;5.00;3.50;;;;;25.96;33.48;99240.41;6246429;27;99562;-75
2022/06/14 08:19:36;;;;;;;;;4.00;4.00;;;;;26.10;34.66;99223.75;6247178;27;96861;-73
2022/06/14 08:22:46;;;;;;;;;4.00;3.00;;;;;26.41;33.88;99232.91;6265601;27;97105;-72
2022/06/14 08:25:54;;;;;;;;;4.00;4.00;;;;;26.24;32.87;99235.59;6265456;27;96551;-75
2022/06/14 08:29:08;;;;;;;;;3.00;3.00;;;;;26.51;33.46;99231.81;6263691;27;97537;-76
2022/06/14 08:32:18;;;;;;;;;3.00;3.00;;;;;26.68;34.12;99229.94;6246028;27;96856;-72
2022/06/14 08:35:29;;;;;;;;;4.50;4.00;;;;;26.64;32.89;99228.13;6264973;27;96422;-73
2022/06/14 08:38:38;;;;;;;;;3.00;3.00;;;;;26.87;31.95;99231.69;6264628;27;96435;-75
2022/06/14 08:41:59;;;;;;;;;4.00;4.00;;;;;26.83;31.32;99231.44;6265272;27;97402;-76
2022/06/14 08:45:10;;;;;;;;;3.00;3.00;;;;;26.93;30.14;99224.84;6229943;27;97621;-76
2022/06/14 08:48:34;;;;;;;;;3.00;3.00;;;;;27.12;31.29;99219.88;6247106;27;96515;-74
2022/06/14 08:52:00;;;;;;;;;3.00;3.00;;;;;27.30;30.82;99198.56;6265058;27;97364;-74
2022/06/14 08:55:18;;;;;;;;;4.00;4.00;;;;;27.14;30.34;99206.50;6237995;28;96526;-75
2022/06/14 08:58:43;;;;;;;;;4.20;4.00;;;;;26.97;30.47;99199.00;6240026;28;97555;-76
2022/06/14 09:02:36;;;;;;;;;3.75;3.75;;;;;27.17;32.23;99192.84;6259344;27;96600;-72
2022/06/14 09:05:57;;;;;;;;;5.20;5.00;;;;;27.34;30.46;99199.53;6246387;27;96623;-73
2022/06/14 09:09:36;;;;;;;;;3.00;3.00;;;;;27.74;30.04;99183.59;6264974;27;96572;-74
2022/06/14 09:13:16;;;;;;;;;3.00;3.00;;;;;27.66;29.70;99181.66;6242307;27;96746;-73
2022/06/14 09:16:49;;;;;;;;;4.00;3.00;;;;;27.64;29.48;99187.53;6257537;27;96504;-76
2022/06/14 09:20:02;;;;;;;;;4.00;3.00;;;;;27.62;28.89;99178.72;6243873;27;99991;-72
2022/06/14 09:23:17;;;;;;;;;4.00;3.60;;;;;27.80;29.73;99172.03;6262380;27;96892;-73
2022/06/14 09:26:42;;;;;;;;;4.00;4.00;;;;;27.72;29.04;99172.84;6263958;27;96387;-76
2022/06/14 09:30:14;;;;;;;;;3.20;2.20;;;;;27.82;29.49;99178.03;6257256;27;96647;-75
2022/06/14 09:33:48;;;;;;;;;4.00;4.00;;;;;27.93;29.62;99184.06;6231491;27;98151;-74
2022/06/14 09:37:32;;;;;;;;;4.00;3.00;;;;;27.86;29.11;99192.06;6251645;27;96400;-75
2022/06/14 09:40:58;;;;;;;;;2.00;2.00;;;;;27.63;28.80;99191.44;6149866;28;97189;-75
2022/06/14 09:44:45;;;;;;;;;4.25;4.00;;;;;27.48;27.97;99194.66;6159106;28;97820;-73
2022/06/14 09:48:32;;;;;;;;;3.60;3.40;;;;;27.64;30.21;99193.06;6082102;28;98645;-76
2022/06/14 09:52:11;;;;;;;;;4.00;3.00;;;;;27.43;28.43;99192.03;6131198;28;99626;-71
2022/06/14 09:55:42;;;;;;;;;5.00;3.50;;;;;27.28;29.54;99198.06;6160194;28;97780;-75
2022/06/14 09:59:10;;;;;;;;;3.00;3.00;;;;;27.37;30.03;99198.88;6134965;28;99659;-76
2022/06/14 10:02:24;;;;;;;;;3.60;3.60;;;;;27.17;29.66;99185.69;6139394;28;100045;-75
2022/06/14 10:05:43;;;;;;;;;3.00;3.00;;;;;26.92;29.44;99188.09;6136036;28;96950;-74
2022/06/14 10:09:01;;;;;;;;;4.00;3.00;;;;;26.74;29.33;99195.47;6159340;28;97562;-75
2022/06/14 10:12:27;;;;;;;;;3.60;3.00;;;;;26.56;29.90;99196.56;6160789;28;96651;-72
2022/06/14 10:15:41;;;;;;;;;3.40;3.00;;;;;26.47;30.54;99200.41;6207420;28;97407;-75
2022/06/14 10:19:10;;;;;;;;;2.60;2.60;;;;;26.48;30.20;99196.53;6242156;27;97448;-72
2022/06/14 10:22:26;;;;;;;;;3.00;3.00;;;;;26.44;29.86;99190.00;6248895;27;97492;-76
2022/06/14 10:28:11;;;;;;;;;2.00;2.00;;;;;25.97;30.60;99184.03;6252486;27;96538;-72
2022/06/14 10:29:27;;;;;;;;;4.00;3.00;;;;;26.01;31.63;99201.59;6233090;27;96520;-76
2022/06/14 10:33:24;;;;;;;;;5.00;4.00;;;;;25.99;31.90;99194.75;6259851;27;96565;-72
2022/06/14 10:37:03;;;;;;;;;2.00;2.00;;;;;26.13;32.33;99196.31;6219031;27;97433;-72
2022/06/14 10:40:25;;;;;;;;;2.00;2.00;;;;;26.07;31.10;99203.09;6228866;27;97572;-74
2022/06/14 10:43:39;;;;;;;;;3.00;3.00;;;;;25.81;30.39;99202.09;6251007;27;96585;-76
2022/06/14 10:46:50;;;;;;;;;3.80;2.40;;;;;25.78;31.01;99208.25;6237729;27;100052;-75
2022/06/14 10:50:26;;;;;;;;;2.00;1.00;;;;;26.08;31.04;99206.69;6245014;27;96485;-76
2022/06/14 10:53:41;;;;;;;;;2.00;2.00;;;;;26.03;31.41;99155.13;6220534;27;96646;-77
2022/06/14 10:57:09;;;;;;;;;3.00;3.00;;;;;26.62;30.78;99200.81;6244358;27;96547;-75
2022/06/14 11:00:21;;;;;;;;;2.50;2.00;;;;;26.77;30.43;99202.34;6240089;27;98313;-74
2022/06/14 11:03:51;;;;;;;;;3.80;3.80;;;;;26.91;29.56;99196.69;6233029;27;97124;-74
2022/06/14 11:07:33;;;;;;;;;2.00;2.00;;;;;27.05;28.77;99214.00;6236483;27;97210;-73
2022/06/14 11:10:51;;;;;;;;;1.80;1.80;;;;;27.25;29.04;99199.53;6262431;27;97441;-76
2022/06/14 11:14:09;;;;;;;;;2.60;2.60;;;;;27.39;28.60;99197.44;6230053;27;98466;-75
2022/06/14 11:17:33;;;;;;;;;2.00;1.00;;;;;27.71;28.21;99198.13;6255730;27;96444;-75
2022/06/14 11:20:50;;;;;;;;;3.00;3.00;;;;;27.93;27.11;99201.50;6226812;27;98303;-75
2022/06/14 11:24:03;;;;;;;;;4.00;4.00;;;;;27.87;27.79;99194.50;6261222;27;96860;-74
2022/06/14 11:27:16;;;;;;;;;3.25;3.25;;;;;27.90;27.81;99190.28;6259475;27;96871;-74
2022/06/14 11:30:30;;;;;;;;;4.00;3.00;;;;;28.16;28.85;99204.09;6255579;27;97643;-75
2022/06/14 11:33:52;;;;;;;;;2.75;2.75;;;;;28.12;29.08;99195.63;6223960;27;98635;-74
2022/06/14 11:37:10;;;;;;;;;3.00;3.00;;;;;28.50;27.39;99198.44;6233325;27;97918;-74
2022/06/14 11:40:19;;;;;;;;;2.20;2.20;;;;;28.42;27.20;99194.56;6258434;27;96387;-73
2022/06/14 11:43:38;;;;;;;;;2.00;2.00;;;;;28.40;27.03;99193.25;6237980;27;97776;-74
2022/06/14 11:46:50;;;;;;;;;2.00;2.00;;;;;27.92;26.97;99188.78;6241769;27;98516;-74
2022/06/14 11:50:02;;;;;;;;;2.00;2.00;;;;;27.35;28.22;99201.19;6260094;27;97143;-75
2022/06/14 11:53:25;;;;;;;;;3.00;3.00;;;;;27.31;28.59;99191.88;6243131;27;96788;-76
2022/06/14 11:56:39;;;;;;;;;3.00;3.00;;;;;27.72;28.09;99178.38;6260102;27;96610;-75
2022/06/14 12:00:03;;;;;;;;;2.00;2.00;;;;;27.79;27.23;99183.44;6235617;27;97480;-74
2022/06/14 12:03:31;;;;;;;;;2.00;2.00;;;;;27.80;27.25;99177.56;6255511;27;97454;-74
2022/06/14 12:06:43;;;;;;;;;3.00;2.40;;;;;27.36;27.48;99156.56;6236194;27;96946;-76
2022/06/14 12:10:15;;;;;;;;;2.00;2.00;;;;;27.52;27.50;99181.81;6263849;27;96569;-74
2022/06/14 12:13:36;;;;;;;;;2.75;2.75;;;;;27.90;28.01;99184.72;6246960;27;96759;-75
2022/06/14 12:16:42;;;;;;;;;2.00;2.00;;;;;27.80;27.11;99180.34;6265297;27;96676;-74
2022/06/14 12:19:52;;;;;;;;;2.00;2.00;;;;;27.51;28.04;99178.22;6264724;27;96515;-74
2022/06/14 12:23:03;;;;;;;;;2.40;2.40;;;;;26.89;28.48;99185.94;6229505;27;96750;-75
2022/06/14 12:29:37;;;;;;;;;2.40;2.00;;;;;26.52;29.49;99187.28;6260286;27;97352;-73
2022/06/14 12:32:47;;;;;;;;;2.00;2.00;;;;;26.23;29.74;99192.50;6260155;27;97082;-73
2022/06/14 12:35:59;;;;;;;;;1.60;1.60;;;;;25.89;29.34;99162.69;6217970;27;96763;-74
2022/06/14 12:39:12;;;;;;;;;2.00;2.00;;;;;26.20;29.36;99201.38;6223089;27;96983;-74
2022/06/14 12:42:26;;;;;;;;;2.00;2.00;;;;;25.97;29.33;99186.78;6242007;27;96751;-74
2022/06/14 12:45:38;;;;;;;;;3.00;2.00;;;;;25.85;30.00;99183.78;6260203;27;97847;-75
2022/06/14 12:48:49;;;;;;;;;2.00;2.00;;;;;25.55;30.57;99185.34;6236393;27;96572;-75
2022/06/14 12:51:58;;;;;;;;;3.00;3.00;;;;;25.33;30.91;99188.03;6228182;28;97026;-75
2022/06/14 12:55:05;;;;;;;;;2.00;2.00;;;;;24.98;31.00;99190.47;6261368;27;98198;-75
2022/06/14 12:58:23;;;;;;;;;2.00;2.00;;;;;24.83;31.39;99185.25;6237761;27;97021;-76
2022/06/14 13:01:38;;;;;;;;;2.00;2.00;;;;;24.75;31.33;99180.47;6262108;27;96988;-74
2022/06/14 13:04:47;;;;;;;;;2.00;2.00;;;;;24.87;31.54;99182.75;6245389;27;97540;-75
2022/06/14 13:08:04;;;;;;;;;2.00;2.00;;;;;25.13;31.83;99149.88;6254327;27;97653;-75
2022/06/14 13:11:19;;;;;;;;;2.00;2.00;;;;;25.62;30.30;99182.13;6262596;27;97110;-75
2022/06/14 13:14:29;;;;;;;;;3.00;2.00;;;;;25.71;30.46;99181.06;6262721;27;96771;-74
2022/06/14 13:17:46;;;;;;;;;2.25;2.00;;;;;25.81;30.80;99122.00;6260995;27;96558;-72
2022/06/14 13:20:57;;;;;;;;;2.00;2.00;;;;;25.87;27.26;99164.94;6242776;27;96585;-73
2022/06/14 13:24:11;;;;;;;;;2.00;1.80;;;;;25.91;28.22;99140.25;6259839;27;97451;-75
2022/06/14 13:27:28;;;;;;;;;3.00;2.25;;;;;26.22;28.87;99168.75;6260611;27;97443;-74
2022/06/14 13:30:42;;;;;;;;;1.60;1.00;;;;;26.34;28.31;99144.06;6245826;27;97470;-75
2022/06/14 13:33:54;;;;;;;;;2.00;2.00;;;;;26.38;27.74;99147.03;6256789;27;97885;-75
2022/06/14 13:37:11;;;;;;;;;2.00;2.00;;;;;26.21;28.91;99142.22;6245544;27;96832;-72
2022/06/14 13:40:22;;;;;;;;;2.60;2.60;;;;;26.14;28.20;99134.41;6259900;27;96786;-74
2022/06/14 13:43:33;;;;;;;;;2.40;2.00;;;;;26.13;28.56;99152.09;6252162;27;97832;-78
2022/06/14 13:46:44;;;;;;;;;1.40;1.40;;;;;25.94;28.26;99153.44;6226014;27;97047;-75
2022/06/14 13:49:54;;;;;;;;;1.60;1.00;;;;;25.84;28.40;99160.06;6232210;27;96963;-74
2022/06/14 13:53:03;;;;;;;;;2.40;2.00;;;;;25.78;28.52;99156.59;6237262;27;96524;-76
2022/06/14 13:56:11;;;;;;;;;2.00;2.00;;;;;26.00;29.03;99157.72;6260546;27;98014;-76
2022/06/14 13:59:19;;;;;;;;;3.00;2.00;;;;;26.27;28.01;99152.84;6238371;27;98447;-75
2022/06/14 14:02:27;;;;;;;;;2.40;2.00;;;;;26.63;27.34;99146.31;6235446;27;98266;-70
2022/06/14 14:05:37;;;;;;;;;2.00;2.00;;;;;26.81;28.01;99142.47;6248335;27;97759;-71
2022/06/14 14:08:54;;;;;;;;;1.00;1.00;;;;;26.93;27.50;99144.59;6222454;27;97442;-70
2022/06/14 14:12:06;;;;;;;;;2.00;2.00;;;;;26.83;26.97;99137.41;6220965;27;97773;-68
2022/06/14 14:15:21;;;;;;;;;3.00;2.00;;;;;26.66;27.08;99140.13;6254599;27;96644;-69
2022/06/14 14:18:46;;;;;;;;;3.00;2.00;;;;;26.57;27.17;99134.59;6241629;27;96730;-69
2022/06/14 14:21:54;;;;;;;;;2.60;2.60;;;;;26.33;27.95;99119.53;6229106;27;98418;-73
2022/06/14 14:25:03;;;;;;;;;2.00;2.00;;;;;26.08;27.41;99127.38;6241284;27;98109;-72
2022/06/14 14:28:22;;;;;;;;;2.00;2.00;;;;;25.97;27.98;99130.72;6244375;27;96785;-73
2022/06/14 14:31:39;;;;;;;;;4.50;2.25;;;;;25.93;28.00;99126.94;6237887;27;96794;-71
2022/06/14 14:34:47;;;;;;;;;2.00;2.00;;;;;25.99;27.28;99129.28;6253318;27;96665;-72
2022/06/14 14:37:56;;;;;;;;;2.00;2.00;;;;;26.18;26.96;99129.03;6252806;27;96801;-73
2022/06/14 14:44:35;;;;;;;;;2.00;2.00;;;;;26.44;26.36;99115.34;6238978;27;97178;-71
2022/06/14 14:47:45;;;;;;;;;1.60;1.00;;;;;26.48;26.34;99119.94;6223637;27;98476;-71
2022/06/14 14:50:55;;;;;;;;;3.00;2.00;;;;;26.41;25.89;99116.78;6223100;27;96675;-71
2022/06/14 14:54:04;;;;;;;;;1.00;1.00;;;;;26.20;26.50;99124.00;6223401;27;99907;-72
2022/06/14 14:57:15;;;;;;;;;2.00;2.00;;;;;26.04;26.69;99122.78;6253543;27;96715;-72
2022/06/14 15:05:20;;;;;;;;;2.00;2.00;;;;;25.97;26.97;99126.00;6232802;27;97671;-72
2022/06/14 15:07:34;;;;;;;;;3.00;2.00;;;;;25.76;27.53;99120.19;6220617;28;96818;-70
2022/06/14 15:10:58;;;;;;;;;3.40;2.40;;;;;25.82;27.64;99121.69;6230585;28;97464;-73
2022/06/14 15:14:02;;;;;;;;;3.00;2.00;;;;;25.89;27.31;99118.50;6226823;28;97192;-70
2022/06/14 15:20:46;;;;;;;;;2.00;2.00;;;;;25.77;27.55;99113.53;6235870;28;97500;-72
2022/06/14 15:23:58;;;;;;;;;3.00;2.80;;;;;25.74;27.47;99118.88;6238446;27;97437;-71
2022/06/14 15:27:08;;;;;;;;;1.60;1.40;;;;;25.79;27.76;99103.00;6237384;28;96795;-71
2022/06/14 15:30:15;;;;;;;;;3.00;2.75;;;;;25.93;27.07;99119.47;6233057;28;98506;-72
2022/06/14 15:33:26;;;;;;;;;1.50;1.50;;;;;26.08;26.32;99112.72;6238235;27;97862;-70